Main page
METAR-TAF:

METAR-TAF

Airports :

Landsberg, Germany

Landsberg-Lech Air Base

latitude: 48-04N, longitude: 010-54E, elevation: 623 m

Current weather observation

The report was made 1 hour and 10 minutes ago, at 12:20 UTC
Wind 11 kt from the West
Temperature 22°C
Humidity 38%
Pressure 1017 hPa
Visibility: 9000 m

METAR: ETSA 231220Z AUTO 28011KT 9000 // ////// 22/07 Q1017 ///

Time: 15:30 (13:30 UTC)


TAF: missing

Weather observations and forecasts of more than 4000 airports (METAR and TAF reports).

The available stations are represented by yellow and red dots on the map.

Hover mouse over dot to see the name of the station.

Then click to see weather observations and forecasts.

To change the map : click on the green buttons with a black cross to zoom in, on the green button with a dash to zoom out, or on the green arrows for adjacent maps.


METAR-TAF: